createdAt,value
2022-12-03T00:00:12.564Z,16.58
2022-12-03T00:02:42.004Z,15.88
2022-12-03T00:05:10.828Z,15.82
2022-12-03T00:07:38.605Z,15.45
2022-12-03T00:10:07.388Z,14.50
2022-12-03T00:12:35.327Z,16.45
2022-12-03T00:15:03.863Z,15.85
2022-12-03T00:17:33.373Z,13.32
2022-12-03T00:20:01.141Z,15.18
2022-12-03T00:22:28.958Z,14.73
2022-12-03T00:24:56.897Z,13.60
2022-12-03T00:27:24.934Z,13.45
2022-12-03T00:29:52.916Z,14.05
2022-12-03T00:32:20.718Z,13.68
2022-12-03T00:34:48.542Z,12.85
2022-12-03T00:37:16.645Z,12.55
2022-12-03T00:39:44.295Z,13.35
2022-12-03T00:42:12.252Z,13.45
2022-12-03T00:44:40.132Z,11.82
2022-12-03T00:47:07.887Z,12.60
2022-12-03T00:49:35.947Z,12.75
2022-12-03T00:52:03.827Z,13.07
2022-12-03T00:54:32.303Z,12.25
2022-12-03T00:57:00.271Z,12.02
2022-12-03T00:59:27.895Z,12.90
2022-12-03T01:01:56.134Z,11.70
2022-12-03T01:04:23.949Z,12.20
2022-12-03T01:06:51.686Z,12.32
2022-12-03T01:09:19.414Z,11.27
2022-12-03T01:11:47.185Z,11.13
2022-12-03T01:14:16.991Z,11.48
2022-12-03T01:16:45.999Z,12.20
2022-12-03T01:19:16.141Z,11.73
2022-12-03T01:21:46.047Z,11.70
2022-12-03T01:24:14.029Z,11.07
2022-12-03T01:26:42.079Z,12.23
2022-12-03T01:29:10.111Z,10.90
2022-12-03T01:31:56.140Z,10.80
2022-12-03T01:34:24.059Z,11.20
2022-12-03T01:36:52.605Z,11.38
2022-12-03T01:39:20.762Z,11.25
2022-12-03T01:41:50.228Z,10.90
2022-12-03T01:44:30.655Z,10.85
2022-12-03T01:47:02.258Z,10.63
2022-12-03T01:49:56.722Z,9.80
2022-12-03T01:52:30.726Z,9.70
2022-12-03T01:55:02.019Z,10.30
2022-12-03T01:57:48.478Z,9.27
2022-12-03T02:00:18.726Z,9.85
2022-12-03T02:02:50.071Z,11.00
2022-12-03T02:05:24.568Z,10.05
2022-12-03T02:07:54.633Z,10.32
2022-12-03T02:10:28.336Z,10.85
2022-12-03T02:15:36.741Z,10.82
2022-12-03T02:18:05.026Z,10.40
2022-12-03T02:20:40.848Z,10.25
2022-12-03T02:23:18.038Z,11.40
2022-12-03T02:25:45.858Z,10.38
2022-12-03T02:28:14.129Z,11.82
2022-12-03T02:30:42.707Z,10.13
2022-12-03T02:33:10.733Z,10.57
2022-12-03T02:35:39.848Z,10.45
2022-12-03T02:38:17.015Z,10.80
2022-12-03T02:40:47.015Z,10.15
2022-12-03T02:43:16.807Z,11.32
2022-12-03T02:45:52.166Z,10.10
2022-12-03T02:48:32.643Z,10.60
2022-12-03T02:51:05.465Z,8.80
2022-12-03T02:53:42.516Z,9.63
2022-12-03T02:56:14.014Z,9.40
2022-12-03T02:58:44.310Z,9.68
2022-12-03T03:01:12.473Z,9.52
2022-12-03T03:03:40.514Z,27.45
2022-12-03T03:06:09.185Z,8.88
2022-12-03T03:08:39.438Z,9.75
2022-12-03T03:11:07.810Z,9.43
2022-12-03T03:13:36.713Z,8.88
2022-12-03T03:16:23.162Z,9.63
2022-12-03T03:18:51.151Z,9.35
2022-12-03T03:21:19.498Z,11.43
2022-12-03T03:23:47.291Z,9.32
2022-12-03T03:26:16.628Z,9.48
2022-12-03T03:28:48.507Z,10.48
2022-12-03T03:31:21.423Z,10.15
2022-12-03T03:33:50.992Z,9.55
2022-12-03T03:36:20.238Z,9.75
2022-12-03T03:38:48.303Z,9.52
2022-12-03T03:41:16.803Z,9.48
2022-12-03T03:43:46.039Z,10.10
2022-12-03T03:46:14.822Z,10.35
2022-12-03T03:48:43.727Z,9.73
2022-12-03T03:51:13.087Z,8.48
2022-12-03T03:53:43.675Z,9.60
2022-12-03T03:56:12.169Z,9.38
2022-12-03T03:58:39.937Z,8.95
2022-12-03T04:01:09.683Z,8.98
2022-12-03T04:03:37.513Z,9.93
2022-12-03T04:06:05.528Z,8.77
2022-12-03T04:08:33.505Z,9.07
2022-12-03T04:11:36.276Z,10.55
2022-12-03T04:14:04.265Z,9.02
2022-12-03T04:16:32.340Z,8.90
2022-12-03T04:19:00.182Z,9.05
2022-12-03T04:21:46.202Z,9.90
2022-12-03T04:24:13.963Z,8.90
2022-12-03T04:27:00.571Z,8.90
2022-12-03T04:29:28.213Z,9.02
2022-12-03T04:32:14.324Z,6.97
2022-12-03T04:35:01.052Z,9.52
2022-12-03T04:37:28.739Z,8.93
2022-12-03T04:39:56.572Z,8.95
2022-12-03T04:42:24.164Z,8.40
2022-12-03T04:44:52.535Z,8.88
2022-12-03T04:47:21.708Z,9.52
2022-12-03T04:49:51.233Z,10.32
2022-12-03T04:52:20.864Z,9.63
2022-12-03T04:54:48.716Z,10.30
2022-12-03T04:57:16.439Z,11.25
2022-12-03T04:59:44.300Z,10.90
2022-12-03T05:02:11.883Z,10.60
2022-12-03T05:04:39.757Z,10.32
2022-12-03T05:07:09.668Z,10.15
2022-12-03T05:09:37.348Z,8.98
2022-12-03T05:12:05.264Z,9.20
2022-12-03T05:14:33.194Z,8.35
2022-12-03T05:17:03.759Z,7.20
2022-12-03T05:19:49.863Z,7.55
2022-12-03T05:22:17.583Z,6.72
2022-12-03T05:24:45.499Z,7.78
2022-12-03T05:27:15.055Z,7.07
2022-12-03T05:29:45.132Z,5.72
2022-12-03T05:32:12.968Z,6.10
2022-12-03T05:34:40.665Z,5.05
2022-12-03T05:37:08.421Z,4.97
2022-12-03T05:39:36.053Z,4.00
2022-12-03T05:42:22.074Z,4.00
2022-12-03T05:44:49.710Z,3.72
2022-12-03T05:47:17.287Z,3.47
2022-12-03T05:49:44.976Z,4.18
2022-12-03T05:52:12.724Z,3.70
2022-12-03T05:54:40.309Z,3.47
2022-12-03T05:57:07.929Z,3.13
2022-12-03T05:59:35.395Z,3.70
2022-12-03T06:02:05.432Z,4.00
2022-12-03T06:04:33.181Z,3.50
2022-12-03T06:07:00.779Z,3.55
2022-12-03T06:09:31.034Z,4.13
2022-12-03T06:11:58.583Z,2.80
2022-12-03T06:14:26.310Z,3.83
2022-12-03T06:16:56.536Z,3.40
2022-12-03T06:19:24.198Z,3.60
2022-12-03T06:21:51.879Z,3.38
2022-12-03T06:24:19.604Z,3.58
2022-12-03T06:26:47.354Z,2.97
2022-12-03T06:29:15.247Z,2.90
2022-12-03T06:31:42.842Z,3.30
2022-12-03T06:34:10.543Z,3.55
2022-12-03T06:36:38.216Z,3.60
2022-12-03T06:39:05.813Z,3.53
2022-12-03T06:41:34.048Z,3.45
2022-12-03T06:44:01.699Z,3.50
2022-12-03T06:46:29.390Z,3.30
2022-12-03T06:49:17.502Z,3.72
2022-12-03T06:51:45.689Z,3.05
2022-12-03T06:54:14.038Z,3.45
2022-12-03T06:56:45.148Z,3.42
2022-12-03T06:59:14.144Z,3.67
2022-12-03T07:01:42.333Z,3.65
2022-12-03T07:04:10.137Z,3.90
2022-12-03T07:06:37.889Z,2.88
2022-12-03T07:09:05.581Z,3.50
2022-12-03T07:11:33.486Z,3.53
2022-12-03T07:14:05.556Z,3.72
2022-12-03T07:16:35.474Z,3.67
2022-12-03T07:19:05.333Z,3.55
2022-12-03T07:21:33.591Z,3.88
2022-12-03T07:24:03.937Z,3.65
2022-12-03T07:26:31.998Z,3.45
2022-12-03T07:29:00.333Z,3.83
2022-12-03T07:31:28.234Z,3.30
2022-12-03T07:33:55.880Z,3.60
2022-12-03T07:36:23.463Z,3.60
2022-12-03T07:38:51.405Z,3.47
2022-12-03T07:41:19.212Z,3.65
2022-12-03T07:43:46.982Z,3.13
2022-12-03T07:46:15.658Z,3.78
2022-12-03T07:48:43.577Z,3.22
2022-12-03T07:51:15.190Z,3.25
2022-12-03T07:53:43.448Z,3.05
2022-12-03T07:56:11.330Z,2.85
2022-12-03T07:58:39.241Z,3.20
2022-12-03T08:01:06.952Z,3.10
2022-12-03T08:03:34.560Z,3.00
2022-12-03T08:06:02.385Z,3.20
2022-12-03T08:08:32.878Z,2.80
2022-12-03T08:11:02.035Z,2.90
2022-12-03T08:13:29.869Z,3.08
2022-12-03T08:16:01.580Z,2.80
2022-12-03T08:18:29.376Z,2.70
2022-12-03T08:20:57.149Z,2.90
2022-12-03T08:23:26.071Z,3.58
2022-12-03T08:25:54.040Z,3.20
2022-12-03T08:28:26.768Z,2.97
2022-12-03T08:31:07.608Z,3.00
2022-12-03T08:33:36.911Z,2.65
2022-12-03T08:36:20.300Z,2.72
2022-12-03T08:38:57.327Z,2.47
2022-12-03T08:41:43.792Z,3.45
2022-12-03T08:44:15.121Z,2.70
2022-12-03T08:46:43.141Z,3.20
2022-12-03T08:49:11.234Z,3.05
2022-12-03T08:51:39.217Z,2.83
2022-12-03T08:54:14.623Z,2.50
2022-12-03T08:56:42.316Z,2.70
2022-12-03T08:59:22.692Z,2.40
2022-12-03T09:01:51.771Z,2.33
2022-12-03T09:04:29.687Z,2.70
2022-12-03T09:06:57.840Z,2.20
2022-12-03T09:09:25.820Z,2.55
2022-12-03T09:11:54.408Z,2.10
2022-12-03T09:14:22.896Z,2.28
2022-12-03T09:16:55.701Z,2.05
2022-12-03T09:19:25.966Z,2.05
2022-12-03T09:21:54.686Z,2.30
2022-12-03T09:24:22.426Z,2.60
2022-12-03T09:26:50.385Z,2.28
2022-12-03T09:29:17.988Z,1.98
2022-12-03T09:31:45.955Z,2.47
2022-12-03T09:34:14.003Z,2.30
2022-12-03T09:36:41.648Z,2.22
2022-12-03T09:39:09.445Z,2.33
2022-12-03T09:41:37.245Z,1.73
2022-12-03T09:44:05.850Z,1.90
2022-12-03T09:46:36.330Z,2.13
2022-12-03T09:49:10.848Z,2.33
2022-12-03T09:51:42.224Z,2.05
2022-12-03T09:54:23.883Z,1.90
2022-12-03T09:56:52.959Z,1.92
2022-12-03T09:59:22.532Z,2.08
2022-12-03T10:01:52.743Z,2.38
2022-12-03T10:04:21.100Z,2.20
2022-12-03T10:06:49.562Z,2.67
2022-12-03T10:09:26.344Z,1.85
2022-12-03T10:11:57.850Z,1.88
2022-12-03T10:14:26.103Z,1.83
2022-12-03T10:16:54.263Z,1.75
2022-12-03T10:19:29.322Z,1.88
2022-12-03T10:21:57.378Z,1.73
2022-12-03T10:24:35.548Z,2.10
2022-12-03T10:27:30.948Z,1.80
2022-12-03T10:30:01.610Z,2.90
2022-12-03T10:32:45.419Z,2.30
2022-12-03T10:35:14.844Z,2.35
2022-12-03T10:38:02.587Z,1.92
2022-12-03T10:40:35.854Z,2.10
2022-12-03T10:43:24.747Z,2.15
2022-12-03T10:46:04.430Z,1.95
2022-12-03T10:48:33.167Z,1.90
2022-12-03T10:51:21.368Z,1.77
2022-12-03T10:53:54.484Z,1.92
2022-12-03T10:56:27.736Z,1.95
2022-12-03T10:58:56.280Z,2.00
2022-12-03T11:01:33.916Z,2.50
2022-12-03T11:04:05.090Z,1.88
2022-12-03T11:06:36.146Z,2.35
2022-12-03T11:09:09.167Z,2.15
2022-12-03T11:11:41.531Z,2.20
2022-12-03T11:14:11.964Z,2.15
2022-12-03T11:16:40.032Z,2.58
2022-12-03T11:19:20.100Z,2.53
2022-12-03T11:22:06.678Z,2.00
2022-12-03T11:24:38.144Z,2.10
2022-12-03T11:27:16.176Z,2.13
2022-12-03T11:30:00.882Z,2.30
2022-12-03T11:32:44.086Z,2.00
2022-12-03T11:35:27.048Z,2.53
2022-12-03T11:37:55.226Z,2.42
2022-12-03T11:40:23.738Z,2.45
2022-12-03T11:42:52.119Z,2.60
2022-12-03T11:45:31.250Z,2.38
2022-12-03T11:48:15.650Z,2.61
2022-12-03T11:50:45.859Z,2.80
2022-12-03T11:53:31.236Z,3.00
2022-12-03T11:56:08.870Z,2.47
2022-12-03T11:58:40.222Z,2.47
2022-12-03T12:01:08.750Z,2.40
2022-12-03T12:03:47.266Z,2.50
2022-12-03T12:06:18.131Z,2.13
2022-12-03T12:08:52.088Z,2.17
2022-12-03T12:11:21.697Z,2.08
2022-12-03T12:13:51.146Z,1.90
2022-12-03T12:16:40.019Z,2.35
2022-12-03T12:19:34.281Z,1.92
2022-12-03T12:24:57.599Z,2.28
2022-12-03T12:27:37.546Z,2.55
2022-12-03T12:30:10.358Z,2.20
2022-12-03T12:32:51.531Z,2.20
2022-12-03T12:35:24.825Z,2.25
2022-12-03T12:37:59.748Z,2.63
2022-12-03T12:40:32.000Z,2.45
2022-12-03T12:43:08.277Z,2.47
2022-12-03T12:45:43.067Z,2.65
2022-12-03T12:48:20.450Z,3.25
2022-12-03T12:51:19.306Z,2.70
2022-12-03T12:53:49.257Z,2.83
2022-12-03T12:56:30.400Z,2.97
2022-12-03T12:59:21.387Z,2.42
2022-12-03T13:01:51.086Z,2.83
2022-12-03T13:04:23.639Z,3.55
2022-12-03T13:06:54.343Z,2.78
2022-12-03T13:09:24.985Z,2.80
2022-12-03T13:11:56.127Z,2.42
2022-12-03T13:14:26.811Z,2.50
2022-12-03T13:16:57.283Z,2.70
2022-12-03T13:19:30.580Z,3.00
2022-12-03T13:22:03.286Z,2.63
2022-12-03T13:24:40.855Z,2.50
2022-12-03T13:27:20.342Z,2.42
2022-12-03T13:29:55.055Z,2.75
2022-12-03T13:32:33.800Z,2.80
2022-12-03T13:35:10.573Z,2.20
2022-12-03T13:37:39.608Z,2.60
2022-12-03T13:40:19.716Z,2.35
2022-12-03T13:42:49.038Z,2.50
2022-12-03T13:45:16.941Z,2.25
2022-12-03T13:47:46.931Z,2.28
2022-12-03T13:50:40.935Z,2.28
2022-12-03T13:53:12.123Z,2.80
2022-12-03T13:55:46.769Z,2.40
2022-12-03T13:58:15.126Z,2.10
2022-12-03T14:00:43.473Z,2.35
2022-12-03T14:03:11.677Z,2.40
2022-12-03T14:05:42.989Z,2.72
2022-12-03T14:08:11.116Z,2.30
2022-12-03T14:10:39.249Z,2.47
2022-12-03T14:13:07.923Z,2.65
2022-12-03T14:15:35.770Z,2.30
2022-12-03T14:18:03.856Z,2.85
2022-12-03T14:20:32.247Z,2.88
2022-12-03T14:23:00.571Z,3.00
2022-12-03T14:25:28.776Z,2.58
2022-12-03T14:28:09.476Z,2.60
2022-12-03T14:30:38.399Z,1.85
2022-12-03T14:33:06.777Z,2.38
2022-12-03T14:35:36.956Z,1.88
2022-12-03T14:38:10.609Z,2.17
2022-12-03T14:40:45.220Z,2.47
2022-12-03T14:43:13.574Z,2.38
2022-12-03T14:45:42.617Z,2.33
2022-12-03T14:48:13.637Z,2.42
2022-12-03T14:50:41.884Z,2.35
2022-12-03T14:53:10.787Z,2.10
2022-12-03T14:55:39.707Z,2.55
2022-12-03T14:58:07.744Z,3.42
2022-12-03T15:00:36.075Z,2.22
2022-12-03T15:03:07.123Z,2.03
2022-12-03T15:05:35.803Z,2.33
2022-12-03T15:08:03.914Z,2.42
2022-12-03T15:10:32.994Z,2.65
2022-12-03T15:13:08.416Z,2.25
2022-12-03T15:15:36.802Z,2.22
2022-12-03T15:18:04.967Z,1.67
2022-12-03T15:20:35.405Z,2.17
2022-12-03T15:23:03.575Z,2.00
2022-12-03T15:25:31.661Z,2.15
2022-12-03T15:27:59.994Z,1.98
2022-12-03T15:30:28.238Z,2.20
2022-12-03T15:32:59.604Z,2.13
2022-12-03T15:35:36.380Z,2.40
2022-12-03T15:38:07.660Z,2.72
2022-12-03T15:40:36.474Z,2.92
2022-12-03T15:43:08.397Z,2.40
2022-12-03T15:45:37.204Z,2.33
2022-12-03T15:48:05.890Z,2.70
2022-12-03T15:50:39.711Z,3.00
2022-12-03T15:53:08.526Z,2.33
2022-12-03T15:55:37.023Z,2.35
2022-12-03T15:58:05.305Z,2.50
2022-12-03T16:00:33.777Z,2.00
2022-12-03T16:03:01.835Z,1.80
2022-12-03T16:05:30.021Z,2.50
2022-12-03T16:07:57.968Z,2.30
2022-12-03T16:10:26.270Z,2.53
2022-12-03T16:12:54.803Z,2.28
2022-12-03T16:15:27.023Z,1.83
2022-12-03T16:17:56.033Z,2.07
2022-12-03T16:20:24.535Z,2.42
2022-12-03T16:22:53.087Z,2.25
2022-12-03T16:25:21.803Z,2.00
2022-12-03T16:27:49.986Z,1.50
2022-12-03T16:30:20.918Z,2.42
2022-12-03T16:32:49.096Z,2.15
2022-12-03T16:35:17.336Z,2.30
2022-12-03T16:37:45.707Z,2.58
2022-12-03T16:40:14.492Z,1.88
2022-12-03T16:42:42.824Z,1.90
2022-12-03T16:45:16.586Z,2.05
2022-12-03T16:47:44.952Z,2.30
2022-12-03T16:50:20.701Z,1.90
2022-12-03T16:52:53.186Z,2.20
2022-12-03T16:55:21.744Z,2.20
2022-12-03T16:57:49.845Z,2.05
2022-12-03T17:00:18.127Z,2.50
2022-12-03T17:02:46.490Z,2.58
2022-12-03T17:05:14.724Z,2.90
2022-12-03T17:07:43.191Z,2.83
2022-12-03T17:10:11.556Z,2.78
2022-12-03T17:13:07.550Z,2.83
2022-12-03T17:15:28.325Z,3.22
2022-12-03T17:17:56.664Z,2.45
2022-12-03T17:20:25.360Z,2.45
2022-12-03T17:22:53.884Z,3.53
2022-12-03T17:25:22.184Z,2.63
2022-12-03T17:27:50.386Z,2.33
2022-12-03T17:30:22.256Z,2.53
2022-12-03T17:32:50.881Z,2.15
2022-12-03T17:35:19.172Z,2.63
2022-12-03T17:37:47.136Z,2.22
2022-12-03T17:40:15.801Z,2.60
2022-12-03T17:42:43.679Z,2.90
2022-12-03T17:45:15.178Z,4.22
2022-12-03T17:47:43.095Z,3.42
2022-12-03T17:50:11.915Z,3.70
2022-12-03T17:52:39.724Z,2.42
2022-12-03T17:55:12.733Z,5.15
2022-12-03T17:57:42.648Z,6.35
2022-12-03T18:00:11.351Z,6.38
2022-12-03T18:02:43.031Z,6.97
2022-12-03T18:05:13.587Z,7.07
2022-12-03T18:07:41.911Z,6.03
2022-12-03T18:10:10.722Z,5.53
2022-12-03T18:12:39.222Z,5.90
2022-12-03T18:15:07.628Z,5.28
2022-12-03T18:17:35.849Z,4.63
2022-12-03T18:20:04.736Z,6.05
2022-12-03T18:22:35.912Z,7.75
2022-12-03T18:25:04.789Z,3.60
2022-12-03T18:27:35.952Z,3.33
2022-12-03T18:30:04.871Z,2.95
2022-12-03T18:32:33.201Z,2.38
2022-12-03T18:35:00.889Z,3.95
2022-12-03T18:37:31.848Z,3.03
2022-12-03T18:40:00.635Z,2.90
2022-12-03T18:42:30.169Z,3.15
2022-12-03T18:44:59.278Z,3.40
2022-12-03T18:47:29.288Z,3.10
2022-12-03T18:49:58.040Z,3.78
2022-12-03T18:52:26.234Z,3.65
2022-12-03T18:54:55.607Z,3.97
2022-12-03T18:57:26.381Z,4.13
2022-12-03T18:59:54.793Z,3.65
2022-12-03T19:03:02.032Z,3.13
2022-12-03T19:05:11.678Z,3.15
2022-12-03T19:07:40.185Z,4.30
2022-12-03T19:10:09.547Z,6.57
2022-12-03T19:12:38.150Z,8.00
2022-12-03T19:15:07.220Z,6.95
2022-12-03T19:17:35.265Z,7.68
2022-12-03T19:20:05.325Z,7.65
2022-12-03T19:22:34.098Z,9.35
2022-12-03T19:25:02.446Z,9.00
2022-12-03T19:27:31.882Z,9.50
2022-12-03T19:30:00.391Z,9.23
2022-12-03T19:32:28.610Z,10.07
2022-12-03T19:34:56.899Z,10.63
2022-12-03T19:37:24.961Z,10.90
2022-12-03T19:39:54.564Z,11.57
2022-12-03T19:42:23.155Z,11.15
2022-12-03T19:44:51.553Z,11.75
2022-12-03T19:47:19.932Z,10.70
2022-12-03T19:49:48.450Z,11.13
2022-12-03T19:52:16.852Z,10.90
2022-12-03T19:54:45.275Z,10.13
2022-12-03T19:57:17.920Z,11.68
2022-12-03T19:59:50.032Z,9.77
2022-12-03T20:02:18.348Z,12.82
2022-12-03T20:04:46.654Z,4.93
2022-12-03T20:07:16.146Z,3.83
2022-12-03T20:09:44.572Z,2.88
2022-12-03T20:12:12.921Z,3.22
2022-12-03T20:14:46.747Z,2.88
2022-12-03T20:17:20.912Z,2.95
2022-12-03T20:19:49.826Z,2.85
2022-12-03T20:22:21.858Z,2.63
2022-12-03T20:24:54.186Z,2.72
2022-12-03T20:27:27.486Z,2.05
2022-12-03T20:30:00.359Z,2.38
2022-12-03T20:32:35.044Z,2.10
2022-12-03T20:35:03.482Z,2.03
2022-12-03T20:37:33.130Z,2.10
2022-12-03T20:40:02.342Z,2.00
2022-12-03T20:42:31.068Z,1.83
2022-12-03T20:44:59.456Z,1.75
2022-12-03T20:47:27.741Z,2.95
2022-12-03T20:49:56.704Z,1.38
2022-12-03T20:52:25.757Z,1.50
2022-12-03T20:54:54.216Z,1.48
2022-12-03T20:57:22.706Z,1.67
2022-12-03T20:59:55.961Z,1.70
2022-12-03T21:02:26.936Z,1.25
2022-12-03T21:04:54.983Z,1.10
2022-12-03T21:07:23.205Z,1.27
2022-12-03T21:09:51.655Z,1.52
2022-12-03T21:12:19.687Z,1.60
2022-12-03T21:14:47.781Z,1.60
2022-12-03T21:17:16.442Z,1.52
2022-12-03T21:19:44.853Z,1.42
2022-12-03T21:22:13.099Z,2.08
2022-12-03T21:24:42.968Z,1.63
2022-12-03T21:27:11.206Z,1.67
2022-12-03T21:29:39.335Z,1.70
2022-12-03T21:32:07.631Z,1.33
2022-12-03T21:34:36.577Z,1.42
2022-12-03T21:37:05.645Z,1.45
2022-12-03T21:39:33.920Z,1.48
2022-12-03T21:42:34.153Z,1.67
2022-12-03T21:44:53.715Z,1.60
2022-12-03T21:47:39.946Z,1.77
2022-12-03T21:50:11.975Z,1.17
2022-12-03T21:52:40.282Z,1.70
2022-12-03T21:55:11.177Z,1.45
2022-12-03T21:57:39.658Z,1.50
2022-12-03T22:00:09.366Z,1.40
2022-12-03T22:02:40.944Z,1.30
2022-12-03T22:05:11.465Z,1.67
2022-12-03T22:07:41.050Z,2.10
2022-12-03T22:10:11.048Z,1.75
2022-12-03T22:12:41.052Z,1.48
2022-12-03T22:15:18.501Z,1.40
2022-12-03T22:17:47.976Z,1.55
2022-12-03T22:20:16.681Z,1.40
2022-12-03T22:22:44.569Z,1.38
2022-12-03T22:25:12.807Z,1.60
2022-12-03T22:27:41.386Z,1.60
2022-12-03T22:30:10.019Z,1.55
2022-12-03T22:32:38.356Z,1.88
2022-12-03T22:35:06.468Z,1.50
2022-12-03T22:37:34.287Z,1.33
2022-12-03T22:40:02.900Z,1.50
2022-12-03T22:42:31.463Z,1.60
2022-12-03T22:45:02.642Z,1.83
2022-12-03T22:47:30.976Z,1.67
2022-12-03T22:49:59.427Z,1.73
2022-12-03T22:52:27.365Z,1.60
2022-12-03T22:54:58.868Z,1.77
2022-12-03T22:57:29.240Z,1.75
2022-12-03T22:59:57.737Z,2.00
2022-12-03T23:02:25.735Z,2.28
2022-12-03T23:04:56.383Z,1.60
2022-12-03T23:07:24.452Z,1.55
2022-12-03T23:09:52.538Z,1.45
2022-12-03T23:12:20.938Z,1.55
2022-12-03T23:14:53.799Z,1.80
2022-12-03T23:17:21.886Z,2.00
2022-12-03T23:19:50.227Z,1.55
2022-12-03T23:22:18.038Z,1.60
2022-12-03T23:24:46.105Z,1.60
2022-12-03T23:27:14.625Z,1.40
2022-12-03T23:29:45.708Z,1.20
2022-12-03T23:32:13.478Z,1.00
2022-12-03T23:34:41.145Z,1.27
2022-12-03T23:37:09.427Z,1.27
2022-12-03T23:39:37.667Z,1.10
2022-12-03T23:42:05.844Z,1.00
2022-12-03T23:44:34.432Z,0.93
2022-12-03T23:47:02.759Z,1.00
2022-12-03T23:49:30.976Z,1.15
2022-12-03T23:52:00.241Z,1.27
2022-12-03T23:54:28.245Z,1.10
2022-12-03T23:56:56.198Z,1.33
2022-12-03T23:59:24.711Z,1.25
